Time;durP1;ratioP1;P1;durP2;ratioP2;P2;SDS_P1;SDS_P2;PMS_P1;PMS_P2;Temp;Humidity;BMP_temperature;BMP_pressure;BME280_temperature;BME280_humidity;BME280_pressure;Samples;Min_cycle;Max_cycle;Signal;HPM_P1;HPM_P2
2024/02/08 00:01:31;;;;;;;7.00;2.60;;;;;;;1.92;100.00;99542.84;5221477;28;20029;-74
2024/02/08 00:04:01;;;;;;;8.57;2.42;;;;;;;2.02;100.00;99546.97;5222935;28;20028;-74
2024/02/08 00:06:32;;;;;;;10.07;2.60;;;;;;;2.03;100.00;99543.50;5220069;28;20033;-73
2024/02/08 00:09:02;;;;;;;8.48;2.63;;;;;;;2.08;100.00;99555.44;5225393;28;20114;-74
2024/02/08 00:11:32;;;;;;;14.32;2.83;;;;;;;1.80;100.00;99548.22;5225912;28;20033;-74
2024/02/08 00:14:03;;;;;;;9.18;2.80;;;;;;;1.74;100.00;99548.31;5223302;28;20036;-74
2024/02/08 00:16:35;;;;;;;7.30;2.55;;;;;;;1.74;100.00;99540.59;5224340;28;20043;-74
2024/02/08 00:19:05;;;;;;;10.43;2.10;;;;;;;1.91;100.00;99548.88;5224841;28;20205;-73
2024/02/08 00:21:37;;;;;;;14.52;2.28;;;;;;;1.94;100.00;99544.53;5214191;28;20041;-74
2024/02/08 00:24:07;;;;;;;8.55;2.38;;;;;;;1.91;100.00;99542.00;5229973;28;20044;-74
2024/02/08 00:26:41;;;;;;;6.32;2.05;;;;;;;1.78;100.00;99539.66;5215219;28;20129;-74
2024/02/08 00:29:11;;;;;;;11.60;2.53;;;;;;;1.90;100.00;99536.88;5229384;28;20055;-74
2024/02/08 00:31:42;;;;;;;8.77;2.60;;;;;;;1.79;100.00;99543.94;5227987;28;20545;-74
2024/02/08 00:34:12;;;;;;;8.60;2.53;;;;;;;1.71;100.00;99540.66;5229931;28;20077;-74
2024/02/08 00:36:42;;;;;;;10.63;2.45;;;;;;;1.80;100.00;99545.66;5223540;28;20071;-74
2024/02/08 00:39:13;;;;;;;6.90;2.83;;;;;;;1.87;100.00;99531.78;5228442;28;20024;-74
2024/02/08 00:41:49;;;;;;;10.75;2.90;;;;;;;1.80;100.00;99548.22;5220875;28;20401;-74
2024/02/08 00:44:20;;;;;;;10.68;3.17;;;;;;;1.97;100.00;99539.31;5223109;28;20032;-74
2024/02/08 00:46:51;;;;;;;8.82;3.00;;;;;;;1.96;100.00;99534.22;5227727;28;20075;-74
2024/02/08 00:49:22;;;;;;;14.20;3.78;;;;;;;1.88;100.00;99523.19;5210106;28;20474;-74
2024/02/08 00:51:52;;;;;;;9.93;3.10;;;;;;;1.84;100.00;99531.84;5225658;28;20078;-74
2024/02/08 00:54:24;;;;;;;13.85;2.90;;;;;;;1.78;100.00;99537.06;5214684;28;20107;-74
2024/02/08 00:56:54;;;;;;;13.93;3.22;;;;;;;1.77;100.00;99525.06;5227045;28;20225;-74
2024/02/08 00:59:24;;;;;;;16.73;4.05;;;;;;;1.85;100.00;99523.25;5228032;28;20036;-74
2024/02/08 01:01:56;;;;;;;11.82;3.35;;;;;;;1.94;100.00;99518.75;5226997;28;20382;-74
2024/02/08 01:04:26;;;;;;;10.65;3.47;;;;;;;2.10;100.00;99515.03;5225075;28;20104;-74
2024/02/08 01:06:58;;;;;;;9.38;3.30;;;;;;;2.01;100.00;99509.19;5204328;28;20028;-74
2024/02/08 01:09:28;;;;;;;11.60;2.90;;;;;;;2.01;100.00;99501.47;5226581;28;20372;-72
2024/02/08 01:12:01;;;;;;;10.32;3.03;;;;;;;1.85;100.00;99511.19;5206571;28;20471;-74
2024/02/08 01:14:32;;;;;;;10.77;3.33;;;;;;;1.88;100.00;99510.28;5209290;28;20047;-72
2024/02/08 01:17:04;;;;;;;10.77;3.33;;;;;;;1.82;100.00;99511.25;5224877;28;20032;-74
2024/02/08 01:19:36;;;;;;;10.52;3.22;;;;;;;1.75;100.00;99506.22;5225424;28;20411;-74
2024/02/08 01:22:06;;;;;;;11.48;3.30;;;;;;;1.90;100.00;99501.69;5226818;28;20544;-74
2024/02/08 01:24:37;;;;;;;9.63;3.05;;;;;;;2.01;100.00;99509.19;5225810;28;20238;-74
2024/02/08 01:27:08;;;;;;;10.40;3.28;;;;;;;1.86;100.00;99502.59;5227365;28;20076;-74
2024/02/08 01:29:38;;;;;;;9.43;3.45;;;;;;;1.71;100.00;99501.19;5224309;28;21419;-74
2024/02/08 01:32:08;;;;;;;6.80;3.13;;;;;;;1.82;100.00;99498.38;5225729;28;20060;-73
2024/02/08 01:34:40;;;;;;;10.77;3.42;;;;;;;1.87;100.00;99504.31;5224146;28;20033;-74
2024/02/08 01:37:13;;;;;;;9.90;3.20;;;;;;;1.94;100.00;99507.59;5211105;28;20052;-74
2024/02/08 01:39:46;;;;;;;8.45;2.80;;;;;;;1.83;100.00;99504.38;5222144;28;20051;-74
2024/02/08 01:42:16;;;;;;;10.43;3.03;;;;;;;1.81;100.00;99512.13;5229737;28;20179;-74
2024/02/08 01:44:47;;;;;;;11.88;2.75;;;;;;;1.86;100.00;99507.72;5208141;28;20026;-74
2024/02/08 01:47:17;;;;;;;9.63;2.70;;;;;;;1.74;100.00;99508.84;5228568;28;20093;-73
2024/02/08 01:49:48;;;;;;;9.25;2.60;;;;;;;1.76;100.00;99500.22;5224431;28;20033;-74
2024/02/08 01:52:19;;;;;;;11.85;2.58;;;;;;;1.68;100.00;99496.06;5225836;28;20112;-74
2024/02/08 01:54:49;;;;;;;9.60;2.58;;;;;;;1.74;100.00;99498.56;5223484;28;20040;-74
2024/02/08 01:57:20;;;;;;;11.25;3.15;;;;;;;1.65;100.00;99490.97;5211748;28;20043;-73
2024/02/08 01:59:52;;;;;;;7.85;2.47;;;;;;;1.65;100.00;99488.41;5224537;28;20385;-74
2024/02/08 02:02:27;;;;;;;16.55;3.20;;;;;;;1.69;100.00;99490.03;5208898;28;20047;-74
2024/02/08 02:04:57;;;;;;;13.50;3.43;;;;;;;1.66;100.00;99493.53;5226738;28;20082;-74
2024/02/08 02:07:28;;;;;;;13.75;3.20;;;;;;;1.72;100.00;99493.41;5227161;28;20286;-74
2024/02/08 02:10:00;;;;;;;16.60;3.08;;;;;;;1.75;100.00;99490.78;5224489;28;20043;-74
2024/02/08 02:12:30;;;;;;;7.53;3.00;;;;;;;1.73;100.00;99487.41;5228373;28;20032;-74
2024/02/08 02:15:04;;;;;;;12.63;2.80;;;;;;;1.83;100.00;99484.63;5225320;28;20032;-73
2024/02/08 02:17:34;;;;;;;9.10;2.67;;;;;;;1.83;100.00;99474.31;5224699;28;20031;-73
2024/02/08 02:20:08;;;;;;;9.35;2.70;;;;;;;1.94;100.00;99481.84;5226173;28;20418;-72
2024/02/08 02:22:43;;;;;;;10.57;2.17;;;;;;;1.86;100.00;99469.09;5224886;28;20025;-74
2024/02/08 02:25:13;;;;;;;9.93;2.28;;;;;;;1.83;100.00;99470.91;5228779;28;20097;-74
2024/02/08 02:27:44;;;;;;;10.15;2.10;;;;;;;1.85;100.00;99469.16;5224955;28;20032;-74
2024/02/08 02:30:17;;;;;;;8.43;2.58;;;;;;;1.88;100.00;99471.66;5224138;28;20386;-74
2024/02/08 02:32:49;;;;;;;12.02;2.67;;;;;;;2.11;100.00;99474.63;5222189;28;20268;-74
2024/02/08 02:35:22;;;;;;;8.85;1.90;;;;;;;2.17;100.00;99465.06;5220646;28;20386;-74
2024/02/08 02:37:52;;;;;;;7.15;2.28;;;;;;;1.97;100.00;99472.34;5208905;28;20568;-74
2024/02/08 02:40:23;;;;;;;10.00;2.53;;;;;;;1.80;100.00;99479.53;5230046;28;20025;-73
2024/02/08 02:42:56;;;;;;;6.97;2.10;;;;;;;1.90;100.00;99481.06;5230854;28;20479;-74
2024/02/08 02:45:29;;;;;;;10.18;2.47;;;;;;;1.92;100.00;99484.47;5215851;28;20504;-74
2024/02/08 02:48:01;;;;;;;12.95;2.78;;;;;;;1.85;100.00;99492.34;5211553;28;20478;-74
2024/02/08 02:50:41;;;;;;;13.45;3.55;;;;;;;1.82;100.00;99498.38;5228645;28;20024;-73
2024/02/08 02:53:11;;;;;;;12.85;2.80;;;;;;;1.80;100.00;99494.97;5233311;28;20032;-74
2024/02/08 02:55:42;;;;;;;8.07;2.55;;;;;;;1.84;100.00;99495.78;5228951;28;20514;-74
2024/02/08 02:58:12;;;;;;;9.05;2.53;;;;;;;1.89;100.00;99499.13;5228351;28;20106;-74
2024/02/08 03:00:44;;;;;;;9.73;2.28;;;;;;;2.11;100.00;99493.53;5209335;28;20017;-74
2024/02/08 03:03:15;;;;;;;9.07;2.30;;;;;;;2.29;100.00;99489.75;5227315;28;20489;-74
2024/02/08 03:05:46;;;;;;;10.45;2.50;;;;;;;2.31;100.00;99495.75;5229870;28;20029;-72
2024/02/08 03:08:16;;;;;;;11.23;2.45;;;;;;;2.31;100.00;99488.00;5229272;28;20371;-74
2024/02/08 03:10:49;;;;;;;8.23;2.83;;;;;;;2.20;100.00;99485.63;5208225;28;20035;-74
2024/02/08 03:13:19;;;;;;;10.90;2.90;;;;;;;2.13;100.00;99488.38;5230758;28;20020;-73
2024/02/08 03:15:52;;;;;;;7.30;2.30;;;;;;;1.95;100.00;99484.41;5222783;28;20632;-74
2024/02/08 03:18:23;;;;;;;5.68;2.10;;;;;;;2.16;100.00;99476.25;5211270;28;20024;-73
2024/02/08 03:20:53;;;;;;;6.82;2.00;;;;;;;1.91;100.00;99474.19;5225931;28;20024;-74
2024/02/08 03:23:24;;;;;;;8.80;2.47;;;;;;;1.80;100.00;99468.41;5226186;28;20529;-74
2024/02/08 03:25:56;;;;;;;11.43;2.63;;;;;;;1.86;100.00;99469.09;5228113;28;20103;-74
2024/02/08 03:28:28;;;;;;;12.38;3.78;;;;;;;2.04;100.00;99460.19;5209460;28;20074;-74
2024/02/08 03:30:59;;;;;;;12.70;2.92;;;;;;;2.10;100.00;99470.38;5224466;28;20184;-73
2024/02/08 03:33:29;;;;;;;12.63;3.40;;;;;;;2.06;100.00;99463.59;5230338;28;20048;-74
2024/02/08 03:35:59;;;;;;;10.38;3.70;;;;;;;2.09;100.00;99459.22;5231420;28;20299;-74
2024/02/08 03:38:29;;;;;;;14.20;3.30;;;;;;;2.07;100.00;99454.97;5209965;28;20512;-74
2024/02/08 03:41:01;;;;;;;14.68;3.78;;;;;;;2.04;100.00;99465.34;5228817;28;20028;-74
2024/02/08 03:43:32;;;;;;;11.18;3.65;;;;;;;2.03;100.00;99455.91;5232151;28;20154;-74
2024/02/08 03:46:07;;;;;;;11.27;3.30;;;;;;;2.02;100.00;99457.63;5225147;28;20116;-74
2024/02/08 03:48:37;;;;;;;13.32;3.30;;;;;;;1.98;100.00;99465.47;5225478;28;20477;-72
2024/02/08 03:51:10;;;;;;;11.57;3.45;;;;;;;1.94;100.00;99466.38;5226663;28;20189;-74
2024/02/08 03:53:43;;;;;;;9.77;3.40;;;;;;;1.93;100.00;99475.00;5223188;28;20063;-74
2024/02/08 03:56:16;;;;;;;13.60;3.60;;;;;;;2.05;100.00;99470.47;5231317;28;20025;-74
2024/02/08 03:58:46;;;;;;;14.73;3.30;;;;;;;1.97;100.00;99471.50;5227383;28;20067;-74
2024/02/08 04:01:17;;;;;;;13.63;3.50;;;;;;;2.01;100.00;99479.13;5224902;28;20040;-74
2024/02/08 04:03:53;;;;;;;9.30;3.75;;;;;;;2.13;100.00;99462.59;5225247;28;20024;-74
2024/02/08 04:06:36;;;;;;;13.52;3.95;;;;;;;2.07;100.00;99462.72;5221538;28;20474;-74
2024/02/08 04:09:09;;;;;;;17.10;4.28;;;;;;;2.11;100.00;99464.34;5227418;28;20036;-74
2024/02/08 04:54:16;;;;;;;8.35;3.10;;;;;;;2.46;100.00;99443.84;5221446;28;20114;-74
2024/02/08 04:56:47;;;;;;;13.35;2.97;;;;;;;2.33;100.00;99448.41;5221170;28;20047;-74
2024/02/08 04:59:20;;;;;;;10.95;2.58;;;;;;;2.39;100.00;99450.88;5226699;28;20020;-74
2024/02/08 05:01:53;;;;;;;11.85;3.40;;;;;;;2.48;100.00;99444.69;5223013;28;20021;-74
2024/02/08 05:04:23;;;;;;;9.75;2.83;;;;;;;2.48;100.00;99448.09;5226716;28;20036;-74
2024/02/08 05:06:55;;;;;;;8.95;3.10;;;;;;;2.75;100.00;99441.50;5224346;28;20025;-74
2024/02/08 05:09:26;;;;;;;11.05;3.45;;;;;;;2.87;100.00;99442.03;5208255;28;20036;-74
2024/02/08 05:11:57;;;;;;;18.38;3.38;;;;;;;2.78;100.00;99438.84;5224867;28;20028;-74
2024/02/08 05:14:27;;;;;;;10.32;3.15;;;;;;;2.58;100.00;99425.53;5224953;28;20036;-74
2024/02/08 05:16:58;;;;;;;9.63;3.13;;;;;;;2.46;100.00;99430.97;5202549;28;20025;-74
2024/02/08 05:19:29;;;;;;;8.10;3.08;;;;;;;2.44;100.00;99436.16;5209238;28;20453;-74
2024/02/08 05:21:59;;;;;;;12.50;3.33;;;;;;;2.31;100.00;99437.28;5228975;28;20070;-75
2024/02/08 05:24:30;;;;;;;13.43;3.42;;;;;;;2.33;100.00;99437.28;5225527;28;20033;-74
2024/02/08 05:27:02;;;;;;;11.55;3.13;;;;;;;2.49;100.00;99441.22;5229089;28;20051;-74
2024/02/08 05:29:32;;;;;;;11.35;3.05;;;;;;;2.67;100.00;99425.34;5231164;28;20573;-74
2024/02/08 05:32:04;;;;;;;11.07;4.03;;;;;;;2.61;100.00;99422.88;5207465;28;20140;-74
2024/02/08 05:34:36;;;;;;;10.30;4.18;;;;;;;2.46;100.00;99430.97;5226548;28;20033;-74
2024/02/08 05:37:06;;;;;;;17.58;3.30;;;;;;;2.38;100.00;99427.72;5206684;28;20024;-74
2024/02/08 05:39:36;;;;;;;10.20;3.50;;;;;;;2.39;100.00;99431.97;5224869;28;20644;-73
2024/02/08 05:42:07;;;;;;;9.30;3.25;;;;;;;2.38;100.00;99427.72;5228849;28;20269;-74
2024/02/08 05:44:40;;;;;;;9.05;3.10;;;;;;;2.60;100.00;99431.50;5226314;28;20112;-73
2024/02/08 05:47:12;;;;;;;7.32;3.22;;;;;;;2.66;100.00;99428.81;5223643;28;20149;-74
2024/02/08 05:49:48;;;;;;;11.57;3.70;;;;;;;2.47;100.00;99432.69;5224452;28;20024;-74
2024/02/08 05:52:19;;;;;;;9.18;3.22;;;;;;;2.39;100.00;99434.56;5228417;28;20149;-74
2024/02/08 05:54:52;;;;;;;11.07;3.17;;;;;;;2.55;100.00;99430.78;5226607;28;20438;-74
2024/02/08 05:57:24;;;;;;;12.40;3.38;;;;;;;2.47;100.00;99430.09;5219694;28;20037;-74
2024/02/08 06:00:00;;;;;;;10.95;3.45;;;;;;;2.30;100.00;99427.88;5224806;28;20029;-74
2024/02/08 06:02:30;;;;;;;9.32;4.13;;;;;;;2.31;100.00;99426.16;5224187;28;20032;-74
2024/02/08 06:05:08;;;;;;;11.93;3.90;;;;;;;2.34;100.00;99420.94;5207043;28;20493;-73
2024/02/08 06:07:39;;;;;;;12.73;3.30;;;;;;;2.44;100.00;99417.25;5222002;28;20075;-74
2024/02/08 06:10:13;;;;;;;14.95;3.83;;;;;;;2.33;100.00;99421.81;5229603;28;20023;-74
2024/02/08 06:12:43;;;;;;;13.75;3.05;;;;;;;2.53;100.00;99415.31;5227852;28;20033;-74
2024/02/08 06:15:24;;;;;;;13.65;3.85;;;;;;;2.54;100.00;99418.75;5225202;28;20035;-74
2024/02/08 06:17:58;;;;;;;9.13;3.67;;;;;;;2.70;100.00;99418.38;5204059;28;20029;-73
2024/02/08 06:20:40;;;;;;;11.32;3.70;;;;;;;2.68;100.00;99421.88;5203576;28;20064;-74
2024/02/08 06:23:16;;;;;;;14.40;3.88;;;;;;;2.69;100.00;99418.44;5229850;28;20439;-74
2024/02/08 06:28:46;;;;;;;9.27;2.95;;;;;;;2.55;100.00;99423.03;5226261;28;20044;-74
2024/02/08 06:31:20;;;;;;;10.25;3.72;;;;;;;2.62;100.00;99433.19;5210767;28;20021;-74
2024/02/08 06:36:49;;;;;;;16.55;4.20;;;;;;;2.74;100.00;99422.59;5220648;28;20182;-74
2024/02/08 06:39:20;;;;;;;10.02;4.22;;;;;;;2.62;100.00;99429.75;5220675;28;20033;-74
2024/02/08 06:42:07;;;;;;;13.32;4.22;;;;;;;2.63;100.00;99409.09;5204938;28;20028;-73
2024/02/08 07:37:49;;;;;;;12.88;3.53;;;;;;;2.51;100.00;99424.00;5221460;28;20166;-74
2024/02/08 07:40:34;;;;;;;14.52;4.10;;;;;;;2.59;100.00;99414.34;5224712;28;20134;-74
2024/02/08 07:43:34;;;;;;;8.50;3.30;;;;;;;2.74;100.00;99420.03;5218879;28;20352;-73
2024/02/08 07:46:03;;;;;;;11.35;4.10;;;;;;;2.74;100.00;99421.75;5222361;28;20036;-74
2024/02/08 07:48:43;;;;;;;15.48;3.60;;;;;;;2.62;100.00;99434.91;5221523;28;20056;-74
2024/02/08 07:51:15;;;;;;;11.43;3.80;;;;;;;2.61;100.00;99441.81;5221167;28;20024;-74
2024/02/08 07:53:50;;;;;;;18.05;4.20;;;;;;;2.55;100.00;99435.94;5216462;28;20422;-74
2024/02/08 07:58:56;;;;;;;11.57;3.15;;;;;;;2.84;100.00;99418.06;5220009;28;20332;-74
2024/02/08 08:01:32;;;;;;;14.40;3.80;;;;;;;3.01;100.00;99406.47;5223675;28;20048;-73
2024/02/08 08:04:02;;;;;;;12.60;3.80;;;;;;;3.14;100.00;99407.00;5219015;28;20039;-74
2024/02/08 08:06:41;;;;;;;15.68;4.03;;;;;;;3.05;100.00;99404.66;5223368;28;20017;-74
2024/02/08 08:09:19;;;;;;;15.80;3.30;;;;;;;2.99;100.00;99408.22;5205173;28;20024;-73
2024/02/08 08:11:55;;;;;;;10.77;3.58;;;;;;;2.94;100.00;99409.22;5226814;28;20413;-74
2024/02/08 08:19:46;;;;;;;15.18;3.65;;;;;;;3.17;100.00;99391.47;5221448;28;20494;-74
2024/02/08 08:22:50;;;;;;;17.02;3.80;;;;;;;3.15;100.00;99390.63;5225580;28;20028;-75
2024/02/08 08:30:46;;;;;;;15.45;3.70;;;;;;;3.48;100.00;99413.00;5211122;28;20045;-74
2024/02/08 08:33:58;;;;;;;15.60;3.75;;;;;;;3.52;100.00;99401.75;5225184;28;20025;-75
2024/02/08 08:36:28;;;;;;;12.52;3.50;;;;;;;3.36;100.00;99405.59;5221818;28;20033;-74
2024/02/08 08:41:48;;;;;;;10.73;3.20;;;;;;;3.67;100.00;99397.00;5220580;28;20114;-74
2024/02/08 08:44:18;;;;;;;12.82;2.92;;;;;;;3.79;100.00;99399.25;5223733;28;20032;-75
2024/02/08 08:46:52;;;;;;;12.20;3.38;;;;;;;4.11;100.00;99412.13;5223907;28;20029;-75
2024/02/08 08:49:24;;;;;;;15.73;3.65;;;;;;;4.23;100.00;99404.88;5219683;28;20029;-74
2024/02/08 08:52:04;;;;;;;10.45;3.40;;;;;;;4.27;100.00;99406.47;5223251;28;20029;-74
2024/02/08 08:54:36;;;;;;;12.75;3.28;;;;;;;4.49;100.00;99410.09;5226379;28;20032;-75
2024/02/08 08:57:12;;;;;;;13.43;3.90;;;;;;;4.13;100.00;99416.34;5218270;28;20025;-74
2024/02/08 08:59:42;;;;;;;12.82;3.40;;;;;;;4.13;100.00;99405.19;5224395;28;20071;-74
2024/02/08 09:02:13;;;;;;;11.15;3.28;;;;;;;4.54;100.00;99408.25;5221536;28;20048;-74
2024/02/08 09:04:43;;;;;;;11.65;2.83;;;;;;;4.46;100.00;99405.03;5223328;28;20034;-74
2024/02/08 09:07:14;;;;;;;10.05;3.25;;;;;;;4.44;100.00;99401.66;5225915;28;20253;-75
2024/02/08 09:10:02;;;;;;;9.23;3.10;;;;;;;4.71;100.00;99382.72;5223520;28;20453;-74
2024/02/08 09:12:39;;;;;;;14.70;3.13;;;;;;;4.83;100.00;99376.28;5223938;28;20123;-75
2024/02/08 09:15:26;;;;;;;14.43;3.42;;;;;;;4.89;100.00;99379.53;5223638;28;20028;-75
2024/02/08 09:17:58;;;;;;;10.82;3.15;;;;;;;4.77;98.66;99372.16;5226081;28;20029;-73
2024/02/08 09:20:28;;;;;;;13.65;2.88;;;;;;;4.77;99.77;99372.16;5219311;28;20036;-74
2024/02/08 09:23:12;;;;;;;10.88;3.10;;;;;;;4.88;99.86;99364.91;5224506;28;20029;-75
2024/02/08 09:25:46;;;;;;;11.18;3.10;;;;;;;4.86;99.17;99366.72;5221378;28;20032;-75
2024/02/08 09:28:23;;;;;;;9.65;2.72;;;;;;;4.78;98.94;99355.75;5223924;28;20028;-74
2024/02/08 09:30:55;;;;;;;9.30;2.88;;;;;;;4.95;98.51;99353.44;5220592;28;20410;-74
2024/02/08 09:33:44;;;;;;;9.27;2.90;;;;;;;5.01;96.78;99362.75;5207980;28;20147;-75
2024/02/08 09:36:16;;;;;;;9.82;2.67;;;;;;;5.00;99.70;99356.72;5225201;28;20044;-74
2024/02/08 09:38:50;;;;;;;11.25;2.88;;;;;;;5.07;99.16;99353.06;5225448;28;20383;-74
2024/02/08 09:41:27;;;;;;;15.30;3.38;;;;;;;5.19;97.84;99352.63;5223046;28;20104;-74
2024/02/08 09:44:00;;;;;;;13.07;2.65;;;;;;;5.14;96.69;99353.72;5209021;28;20025;-75
2024/02/08 09:49:13;;;;;;;16.50;3.08;;;;;;;5.16;96.58;99346.72;5224608;28;20040;-75
2024/02/08 09:51:55;;;;;;;12.48;2.90;;;;;;;5.17;96.78;99349.25;5222423;28;20403;-75
2024/02/08 09:54:30;;;;;;;11.60;2.65;;;;;;;5.28;97.93;99344.56;5205851;28;20025;-75
2024/02/08 09:57:01;;;;;;;;;;;;;;;5.33;97.72;99334.88;5222734;28;20029;-74
2024/02/08 10:02:32;;;;;;;13.77;2.75;;;;;;;5.53;96.35;99345.41;5226567;28;20063;-75
2024/02/08 10:08:08;;;;;;;6.72;2.45;;;;;;;5.85;97.00;99339.94;5196292;28;20040;-75
2024/02/08 10:11:07;;;;;;;11.32;2.72;;;;;;;5.95;94.53;99346.50;5208106;28;20032;-75
2024/02/08 10:13:51;;;;;;;11.13;2.85;;;;;;;5.87;93.76;99327.78;5224407;28;20040;-75
2024/02/08 10:19:28;;;;;;;9.27;2.53;;;;;;;6.05;94.44;99327.13;5227619;28;20132;-75
2024/02/08 10:22:18;;;;;;;8.52;2.80;;;;;;;5.93;93.86;99323.22;5225783;28;20017;-75
2024/02/08 10:27:22;;;;;;;13.32;2.97;;;;;;;6.01;92.54;99317.75;5226204;28;20559;-75
2024/02/08 10:30:05;;;;;;;10.77;2.65;;;;;;;5.84;90.70;99313.19;5225294;28;20509;-75
2024/02/08 10:32:37;;;;;;;13.55;2.60;;;;;;;5.95;92.55;99320.56;5226091;28;20039;-74
2024/02/08 10:35:13;;;;;;;13.75;2.92;;;;;;;6.15;93.00;99323.25;5227960;28;20025;-75
2024/02/08 10:37:49;;;;;;;12.80;3.15;;;;;;;6.22;94.02;99322.97;5226226;28;20501;-74
2024/02/08 10:40:29;;;;;;;;;;;;;;;6.26;94.79;99315.94;5224178;28;20040;-75
2024/02/08 10:43:02;;;;;;;8.57;2.30;;;;;;;6.25;93.74;99306.47;5224808;28;20401;-74
2024/02/08 10:45:43;;;;;;;11.15;2.70;;;;;;;6.15;94.52;99308.56;5221187;28;20036;-74
2024/02/08 10:48:14;;;;;;;16.65;2.88;;;;;;;6.24;94.34;99302.19;5225341;28;20103;-75
2024/02/08 10:50:44;;;;;;;12.30;3.13;;;;;;;6.20;95.32;99295.38;5227808;28;20120;-75
2024/02/08 10:53:43;;;;;;;14.18;3.10;;;;;;;6.20;93.44;99285.88;5222333;28;20036;-74
2024/02/08 10:56:17;;;;;;;11.55;3.20;;;;;;;6.47;93.31;99289.13;5223950;28;20048;-75
2024/02/08 11:02:00;;;;;;;11.02;2.60;;;;;;;6.41;90.44;99273.81;5225118;28;20044;-75
2024/02/08 11:04:30;;;;;;;14.25;3.10;;;;;;;6.62;90.15;99268.59;5225637;28;20036;-73
2024/02/08 11:07:14;;;;;;;8.90;2.50;;;;;;;7.01;88.98;99266.13;5221173;28;20336;-75
2024/02/08 11:09:45;;;;;;;15.32;2.28;;;;;;;7.02;86.84;99257.41;5224000;28;20379;-75
2024/02/08 11:12:23;;;;;;;8.02;2.42;;;;;;;6.96;85.98;99249.88;5203942;28;20037;-75
2024/02/08 11:14:58;;;;;;;15.45;3.05;;;;;;;6.79;86.27;99241.97;5224041;28;20390;-74
2024/02/08 11:17:32;;;;;;;15.38;2.65;;;;;;;6.89;85.68;99245.84;5219877;28;20043;-74
2024/02/08 11:20:03;;;;;;;14.02;2.85;;;;;;;6.42;85.32;99244.38;5208936;28;20040;-74
2024/02/08 11:22:40;;;;;;;12.90;2.72;;;;;;;6.77;87.25;99228.22;5204310;28;20037;-75
2024/02/08 11:25:19;;;;;;;10.30;2.10;;;;;;;6.59;85.75;99221.19;5226077;28;20038;-75
2024/02/08 11:27:51;;;;;;;12.40;2.42;;;;;;;6.57;86.89;99223.00;5228112;28;20021;-75
2024/02/08 11:30:35;;;;;;;15.43;2.10;;;;;;;6.68;86.16;99216.47;5227180;28;20021;-75
2024/02/08 11:33:12;;;;;;;16.38;2.83;;;;;;;6.77;85.50;99210.88;5227719;28;20032;-73
2024/02/08 11:35:54;;;;;;;17.35;2.47;;;;;;;6.59;85.01;99209.03;5231625;28;20029;-75
2024/02/08 11:38:30;;;;;;;9.85;2.80;;;;;;;6.69;86.46;99210.34;5227886;28;20282;-74
2024/02/08 11:41:10;;;;;;;10.27;2.10;;;;;;;6.66;85.46;99201.84;5229362;28;20197;-75
2024/02/08 11:43:47;;;;;;;15.70;2.55;;;;;;;6.81;88.12;99201.19;5226689;28;20037;-75
2024/02/08 11:46:18;;;;;;;12.48;2.88;;;;;;;6.79;87.20;99190.03;5229566;28;20025;-75
2024/02/08 11:48:49;;;;;;;13.40;3.05;;;;;;;6.77;86.31;99184.06;5227230;28;20714;-74
2024/02/08 11:51:22;;;;;;;13.45;2.92;;;;;;;6.68;85.25;99176.66;5228538;28;20033;-74
2024/02/08 11:54:01;;;;;;;7.90;2.40;;;;;;;6.56;85.92;99169.41;5228801;28;20024;-74
2024/02/08 11:56:32;;;;;;;7.97;2.58;;;;;;;6.45;85.22;99163.81;5210103;28;20032;-74
2024/02/08 11:59:07;;;;;;;10.18;2.45;;;;;;;6.80;86.36;99165.75;5229070;28;20035;-75
2024/02/08 12:01:37;;;;;;;10.02;2.53;;;;;;;6.67;86.87;99152.47;5228798;28;20028;-75
2024/02/08 12:04:08;;;;;;;17.33;3.08;;;;;;;6.55;88.03;99154.72;5229772;28;20120;-72
2024/02/08 12:06:45;;;;;;;16.00;2.13;;;;;;;6.24;87.64;99151.75;5210734;28;20086;-74
2024/02/08 12:09:22;;;;;;;10.85;2.15;;;;;;;6.41;83.89;99150.13;5227850;28;20101;-75
2024/02/08 12:11:55;;;;;;;15.63;2.78;;;;;;;6.35;84.47;99152.13;5226549;28;20025;-75
2024/02/08 12:14:26;;;;;;;11.15;1.75;;;;;;;6.20;83.93;99147.56;5227914;28;20039;-74
2024/02/08 12:16:57;;;;;;;9.23;1.85;;;;;;;6.48;83.42;99141.19;5229345;28;20029;-75
2024/02/08 12:19:30;;;;;;;9.63;1.50;;;;;;;6.64;83.36;99142.22;5213578;28;20032;-74
2024/02/08 12:22:04;;;;;;;9.05;1.67;;;;;;;6.37;81.62;99137.34;5229843;28;20056;-75
2024/02/08 12:24:34;;;;;;;9.50;1.80;;;;;;;6.32;81.20;99139.28;5224746;28;20522;-74
2024/02/08 12:27:13;;;;;;;8.57;1.48;;;;;;;6.39;81.57;99140.72;5212448;28;20063;-74
2024/02/08 12:29:50;;;;;;;9.38;1.40;;;;;;;6.59;81.94;99131.19;5209113;28;20463;-74
2024/02/08 12:32:27;;;;;;;11.15;1.60;;;;;;;6.66;80.96;99126.56;5224320;28;20024;-75
2024/02/08 12:35:12;;;;;;;14.82;2.50;;;;;;;6.47;79.80;99123.09;5210202;28;20544;-75
2024/02/08 12:37:46;;;;;;;10.50;1.48;;;;;;;6.63;81.82;99118.94;5226578;28;20039;-74
2024/02/08 12:40:18;;;;;;;8.55;1.90;;;;;;;6.66;81.30;99113.59;5230551;28;20028;-74
2024/02/08 12:42:48;;;;;;;9.25;1.90;;;;;;;6.61;79.87;99120.75;5230380;28;20512;-75
2024/02/08 12:45:19;;;;;;;11.07;2.20;;;;;;;6.52;81.31;99115.94;5222742;28;20024;-75
2024/02/08 12:47:49;;;;;;;4.40;1.23;;;;;;;6.47;81.13;99123.09;5230231;28;20033;-74
2024/02/08 12:50:21;;;;;;;11.63;1.85;;;;;;;6.49;80.48;99110.88;5231721;28;20024;-74
2024/02/08 12:52:54;;;;;;;12.38;2.03;;;;;;;6.38;81.52;99113.06;5228320;28;20017;-75
2024/02/08 12:55:29;;;;;;;12.88;2.20;;;;;;;6.39;81.35;99114.78;5228201;28;20490;-75
2024/02/08 12:58:02;;;;;;;14.02;1.95;;;;;;;6.34;82.34;99114.13;5212319;28;20060;-75
2024/02/08 13:00:35;;;;;;;9.27;1.40;;;;;;;6.24;81.19;99112.84;5230139;28;20040;-73
2024/02/08 13:03:06;;;;;;;11.48;1.92;;;;;;;6.13;81.45;99107.25;5210670;28;20032;-74
2024/02/08 13:05:37;;;;;;;10.10;1.60;;;;;;;5.91;80.02;99102.06;5225518;28;20035;-74
2024/02/08 13:08:08;;;;;;;9.27;1.40;;;;;;;6.12;80.76;99106.38;5209587;28;20025;-75
2024/02/08 13:10:39;;;;;;;8.82;1.70;;;;;;;6.19;81.12;99101.78;5228353;28;20043;-74
2024/02/08 13:13:10;;;;;;;6.63;1.73;;;;;;;6.12;81.57;99097.78;5210838;28;20020;-74
2024/02/08 13:15:43;;;;;;;7.10;1.65;;;;;;;6.28;81.75;99107.44;5223239;28;20024;-74
2024/02/08 13:18:13;;;;;;;10.38;1.60;;;;;;;6.31;81.96;99103.88;5228593;28;20104;-73
2024/02/08 13:20:43;;;;;;;7.90;1.85;;;;;;;6.42;82.26;99104.28;5226475;28;20503;-74
2024/02/08 13:23:14;;;;;;;7.05;1.63;;;;;;;6.19;81.30;99106.97;5230334;28;20028;-74
2024/02/08 13:25:44;;;;;;;11.82;2.03;;;;;;;6.26;82.55;99090.28;5226821;28;20433;-74
2024/02/08 13:28:14;;;;;;;7.68;1.60;;;;;;;6.09;82.23;99095.31;5229850;28;20198;-74
2024/02/08 13:30:48;;;;;;;11.23;1.65;;;;;;;6.14;81.76;99093.34;5227890;28;20031;-74
2024/02/08 13:33:21;;;;;;;10.15;1.60;;;;;;;5.91;82.31;99098.66;5209198;28;20025;-75
2024/02/08 13:35:52;;;;;;;16.13;2.15;;;;;;;6.02;82.42;99086.94;5226460;28;20555;-74
2024/02/08 13:38:23;;;;;;;9.80;1.80;;;;;;;6.13;82.54;99086.50;5230304;28;20028;-74
2024/02/08 13:40:58;;;;;;;7.60;1.80;;;;;;;6.05;82.63;99076.44;5228897;28;20017;-74
2024/02/08 13:43:30;;;;;;;13.13;1.90;;;;;;;6.07;84.08;99074.63;5231487;28;20032;-74
2024/02/08 13:46:00;;;;;;;9.02;1.98;;;;;;;6.03;83.65;99059.25;5227907;28;20509;-74
2024/02/08 13:48:30;;;;;;;7.07;1.92;;;;;;;6.07;84.82;99066.00;5212677;28;20033;-74
2024/02/08 13:51:06;;;;;;;11.80;2.08;;;;;;;6.08;85.10;99057.31;5228780;28;20056;-74
2024/02/08 13:53:37;;;;;;;7.63;2.15;;;;;;;5.97;85.10;99059.50;5230245;28;20025;-74
2024/02/08 13:56:11;;;;;;;11.48;2.25;;;;;;;6.12;84.03;99058.88;5230226;28;20024;-74
2024/02/08 13:58:41;;;;;;;11.82;2.53;;;;;;;6.09;85.36;99059.00;5227857;28;20020;-74
2024/02/08 14:01:12;;;;;;;10.52;2.65;;;;;;;6.03;86.55;99052.31;5210790;28;20494;-74
2024/02/08 14:03:45;;;;;;;11.38;2.30;;;;;;;5.86;86.59;99046.13;5228450;28;20029;-74
2024/02/08 14:06:21;;;;;;;9.45;2.38;;;;;;;5.92;87.83;99051.09;5227156;28;20035;-74
2024/02/08 14:08:54;;;;;;;11.90;2.60;;;;;;;5.84;89.08;99042.75;5227258;28;20065;-74
2024/02/08 14:11:25;;;;;;;11.57;2.40;;;;;;;5.73;87.20;99035.41;5230598;28;20115;-75
2024/02/08 14:13:56;;;;;;;11.23;2.17;;;;;;;5.93;87.76;99038.03;5207364;28;20036;-74
2024/02/08 14:16:27;;;;;;;10.93;2.50;;;;;;;5.86;88.84;99026.25;5225252;28;20036;-74